Time;durP1;ratioP1;P1;durP2;ratioP2;P2;SDS_P1;SDS_P2;PMS_P1;PMS_P2;Temp;Humidity;BMP_temperature;BMP_pressure;BME280_temperature;BME280_humidity;BME280_pressure;Samples;Min_cycle;Max_cycle;Signal;HPM_P1;HPM_P2
2021/11/30 03:06:33;;;;;;;21.53;16.00;;;;;;;0.48;87.39;97614.30;2279550;77;22827;-83
2021/11/30 03:09:34;;;;;;;20.37;13.60;;;;;;;0.42;87.28;97632.50;2258501;78;21418;-83
2021/11/30 03:12:34;;;;;;;22.60;16.13;;;;;;;0.42;87.13;97620.53;2259476;78;20943;-84
2021/11/30 03:15:35;;;;;;;20.77;15.43;;;;;;;0.43;87.08;97622.69;2267396;78;20971;-83
2021/11/30 03:18:39;;;;;;;18.97;15.37;;;;;;;0.45;87.24;97621.91;2261500;78;21043;-82
2021/11/30 03:21:39;;;;;;;18.97;14.37;;;;;;;0.47;87.09;97615.13;2264063;78;21022;-83
2021/11/30 03:24:40;;;;;;;20.80;15.67;;;;;;;0.48;86.76;97618.57;2205110;78;21050;-83
2021/11/30 03:27:45;;;;;;;19.43;14.97;;;;;;;0.51;86.82;97614.81;2262643;78;21018;-83
2021/11/30 03:30:54;;;;;;;20.70;15.23;;;;;;;0.53;86.74;97622.16;2243639;78;21336;-83
2021/11/30 03:34:00;;;;;;;17.77;14.23;;;;;;;0.55;86.57;97623.07;2241779;78;20987;-83
2021/11/30 03:37:01;;;;;;;18.30;14.33;;;;;;;0.59;86.22;97624.50;2260073;78;20991;-83
2021/11/30 03:40:02;;;;;;;19.53;14.47;;;;;;;0.58;86.20;97622.75;2246037;78;21015;-83
2021/11/30 03:43:03;;;;;;;16.43;13.60;;;;;;;0.57;86.08;97640.68;2253856;78;21039;-83
2021/11/30 03:46:03;;;;;;;18.70;14.33;;;;;;;0.53;86.04;97634.58;2261649;78;20929;-83
2021/11/30 03:49:04;;;;;;;16.97;12.73;;;;;;;0.53;86.35;97637.56;2254676;78;21402;-83
2021/11/30 03:52:05;;;;;;;18.13;12.37;;;;;;;0.55;86.31;97631.64;2247530;78;20998;-84
2021/11/30 03:55:05;;;;;;;18.57;14.40;;;;;;;0.56;86.21;97637.24;2270116;78;20983;-84
2021/11/30 03:58:06;;;;;;;17.40;12.53;;;;;;;0.55;85.99;97629.08;2247196;78;20979;-83
2021/11/30 04:01:06;;;;;;;16.20;12.27;;;;;;;0.55;86.34;97632.06;2258131;78;21011;-84
2021/11/30 04:04:36;;;;;;;18.03;12.67;;;;;;;0.55;85.91;97635.50;2259072;78;21383;-82
2021/11/30 04:07:16;;;;;;;20.20;12.53;;;;;;;0.55;85.62;97641.05;2240549;78;20983;-83
2021/11/30 04:10:17;;;;;;;16.63;13.33;;;;;;;0.55;85.61;97644.90;2260787;78;20985;-83
2021/11/30 04:13:17;;;;;;;14.97;11.03;;;;;;;0.55;85.62;97647.47;2258801;78;21031;-83
2021/11/30 04:16:18;;;;;;;14.00;11.03;;;;;;;0.55;85.58;97649.62;2259623;78;21402;-83
2021/11/30 04:19:18;;;;;;;16.33;11.63;;;;;;;0.55;85.67;97656.45;2259057;78;21026;-82
2021/11/30 04:22:19;;;;;;;16.60;12.60;;;;;;;0.55;85.54;97656.04;2240275;78;20979;-83
2021/11/30 04:25:19;;;;;;;18.50;12.83;;;;;;;0.57;85.63;97654.80;2236981;78;21034;-82
2021/11/30 04:28:21;;;;;;;13.77;11.60;;;;;;;0.57;85.46;97655.67;2229321;78;21403;-82
2021/11/30 04:31:22;;;;;;;16.73;11.20;;;;;;;0.60;85.18;97650.64;2259204;78;21136;-83
2021/11/30 04:34:22;;;;;;;14.30;10.87;;;;;;;0.59;84.60;97657.88;2258855;78;21023;-82
2021/11/30 04:40:25;;;;;;;13.50;10.07;;;;;;;0.58;84.43;97658.70;2215012;78;21078;-82
2021/11/30 04:43:33;;;;;;;10.90;9.80;;;;;;;0.56;83.83;97651.36;2237068;78;21011;-82
2021/11/30 04:46:38;;;;;;;14.03;10.03;;;;;;;0.52;83.69;97667.50;2255857;78;21048;-80
2021/11/30 04:52:38;;;;;;;15.27;9.63;;;;;;;0.50;84.32;97664.42;2225633;78;20978;-83
2021/11/30 04:55:39;;;;;;;12.37;10.30;;;;;;;0.50;84.08;97663.14;2248598;78;21584;-82
2021/11/30 04:58:39;;;;;;;13.30;10.37;;;;;;;0.50;84.30;97670.43;2265262;78;20979;-82
2021/11/30 05:01:42;;;;;;;14.20;9.90;;;;;;;0.48;83.96;97666.94;2224745;78;20967;-82
2021/11/30 05:04:42;;;;;;;14.30;9.93;;;;;;;0.47;83.98;97667.77;2227319;78;21043;-83
2021/11/30 05:07:43;;;;;;;13.27;9.77;;;;;;;0.48;83.73;97675.05;2240547;78;21043;-82
2021/11/30 05:10:44;;;;;;;13.60;9.97;;;;;;;0.48;84.15;97668.64;2250554;78;20995;-83
2021/11/30 05:13:44;;;;;;;19.17;12.73;;;;;;;0.52;83.98;97664.93;2264515;78;21018;-82
2021/11/30 05:16:45;;;;;;;16.93;9.17;;;;;;;0.52;83.92;97668.78;2257692;78;21034;-82
2021/11/30 05:19:45;;;;;;;12.70;9.50;;;;;;;0.54;83.64;97668.83;2252189;78;21081;-82
2021/11/30 05:22:46;;;;;;;14.80;10.40;;;;;;;0.51;82.54;97679.00;2249456;78;21426;-82
2021/11/30 05:25:47;;;;;;;13.13;9.90;;;;;;;0.46;83.40;97671.16;2241891;78;21055;-82
2021/11/30 05:28:48;;;;;;;15.17;10.43;;;;;;;0.48;83.65;97674.64;2256894;78;21043;-83
2021/11/30 05:31:48;;;;;;;14.27;9.93;;;;;;;0.51;83.25;97684.14;2258418;78;20991;-82
2021/11/30 05:34:49;;;;;;;14.47;9.57;;;;;;;0.51;82.94;97677.31;2267209;78;21042;-82
2021/11/30 05:37:49;;;;;;;11.60;8.53;;;;;;;0.46;82.54;97674.13;2225242;78;21030;-82
2021/11/30 05:40:50;;;;;;;12.00;8.30;;;;;;;0.45;82.54;97672.39;2250813;78;20967;-82
2021/11/30 05:43:51;;;;;;;16.37;9.53;;;;;;;0.39;81.69;97669.62;2246006;78;21003;-81
2021/11/30 05:46:51;;;;;;;15.00;8.57;;;;;;;0.36;82.43;97666.55;2255403;78;21053;-83
2021/11/30 05:49:52;;;;;;;11.13;8.63;;;;;;;0.35;82.37;97666.08;2253220;78;20970;-84
2021/11/30 05:52:52;;;;;;;12.57;9.50;;;;;;;0.31;82.36;97664.23;2238325;78;21406;-84
2021/11/30 05:55:53;;;;;;;14.80;10.40;;;;;;;0.29;82.77;97664.59;2257864;78;21362;-81
2021/11/30 05:58:53;;;;;;;18.30;12.03;;;;;;;0.25;83.00;97664.03;2269951;78;20943;-81
2021/11/30 06:01:55;;;;;;;17.47;12.10;;;;;;;0.23;83.23;97669.12;2269775;78;21019;-83
2021/11/30 06:04:56;;;;;;;21.10;13.33;;;;;;;0.24;83.47;97671.27;2223940;78;21405;-82
2021/11/30 06:07:56;;;;;;;20.63;13.20;;;;;;;0.20;83.19;97666.86;2265634;78;21028;-81
2021/11/30 06:10:57;;;;;;;18.53;11.63;;;;;;;0.14;83.10;97671.79;2253742;78;21038;-80
2021/11/30 06:13:57;;;;;;;15.33;10.47;;;;;;;0.07;83.01;97669.84;2269916;78;20963;-80
2021/11/30 06:16:58;;;;;;;28.80;13.70;;;;;;;0.00;83.11;97682.87;2249435;78;20936;-80
2021/11/30 06:19:59;;;;;;;27.17;14.30;;;;;;;-0.02;83.53;97680.22;2240607;78;20983;-80
2021/11/30 06:23:00;;;;;;;23.63;14.97;;;;;;;-0.05;83.48;97687.80;2221064;78;21023;-81
2021/11/30 06:26:01;;;;;;;41.83;23.37;;;;;;;-0.04;83.85;97682.27;2242688;78;21085;-81
2021/11/30 06:29:02;;;;;;;25.43;15.47;;;;;;;-0.04;83.78;97680.98;2267822;78;21365;-81
2021/11/30 06:32:05;;;;;;;17.40;12.00;;;;;;;-0.10;83.41;97674.36;2250343;78;20963;-82
2021/11/30 06:35:06;;;;;;;15.40;11.00;;;;;;;-0.16;83.47;97676.30;2262024;78;21034;-80
2021/11/30 06:38:06;;;;;;;16.97;10.23;;;;;;;-0.18;83.84;97677.94;2248982;78;20999;-81
2021/11/30 06:41:07;;;;;;;15.60;10.20;;;;;;;-0.17;83.64;97682.25;2270415;78;21480;-82
2021/11/30 06:44:07;;;;;;;16.07;9.63;;;;;;;-0.14;83.49;97681.48;2235589;78;20964;-82
2021/11/30 06:47:08;;;;;;;19.37;11.80;;;;;;;-0.16;83.45;97672.45;2248139;78;21338;-82
2021/11/30 06:50:09;;;;;;;28.40;16.17;;;;;;;-0.17;83.57;97679.69;2270701;78;21001;-83
2021/11/30 06:53:09;;;;;;;29.97;17.20;;;;;;;-0.14;83.76;97678.52;2243532;78;21000;-83
2021/11/30 06:56:10;;;;;;;21.33;11.67;;;;;;;-0.10;83.61;97680.36;2259380;78;21003;-82
2021/11/30 06:59:11;;;;;;;21.87;10.77;;;;;;;-0.06;83.51;97682.22;2234714;78;21042;-83
2021/11/30 07:02:13;;;;;;;18.20;10.50;;;;;;;-0.07;83.45;97693.30;2254747;78;21690;-82
2021/11/30 07:08:21;;;;;;;20.23;11.37;;;;;;;-0.04;83.29;97685.70;2228791;78;21417;-80
2021/11/30 07:11:37;;;;;;;20.03;11.87;;;;;;;0.03;83.51;97685.95;2260131;78;21084;-82
2021/11/30 07:14:26;;;;;;;17.30;11.30;;;;;;;0.09;83.35;97675.89;2258605;78;21014;-81
2021/11/30 07:20:31;;;;;;;20.53;13.27;;;;;;;0.17;82.97;97679.59;2217977;78;20955;-81
2021/11/30 07:23:32;;;;;;;18.50;12.27;;;;;;;0.25;83.03;97677.73;2255215;78;21622;-81
2021/11/30 07:26:32;;;;;;;25.30;13.67;;;;;;;0.34;83.02;97673.32;2262285;78;20967;-81
2021/11/30 07:29:33;;;;;;;16.87;12.73;;;;;;;0.41;82.98;97661.14;2267883;78;20974;-82
2021/11/30 07:32:33;;;;;;;17.83;12.20;;;;;;;0.47;82.76;97671.61;2256752;78;21065;-82
2021/11/30 07:35:34;;;;;;;17.30;12.03;;;;;;;0.48;82.47;97665.66;2256072;78;21022;-82
2021/11/30 07:38:34;;;;;;;21.40;12.67;;;;;;;0.51;82.63;97659.34;2268924;78;21334;-82
2021/11/30 07:41:35;;;;;;;22.17;11.90;;;;;;;0.59;82.68;97652.75;2247674;78;20999;-81
2021/11/30 07:44:36;;;;;;;17.53;12.37;;;;;;;0.68;82.33;97650.00;2240553;78;21023;-81
2021/11/30 07:47:36;;;;;;;21.87;11.67;;;;;;;0.70;82.33;97663.77;2255121;78;20962;-82
2021/11/30 07:50:37;;;;;;;14.70;10.63;;;;;;;0.79;81.84;97652.49;2245381;78;21014;-81
2021/11/30 07:53:41;;;;;;;18.47;13.67;;;;;;;0.87;81.79;97650.65;2246104;78;21346;-82
2021/11/30 07:56:40;;;;;;;14.20;10.93;;;;;;;0.89;81.62;97643.86;2258566;78;21053;-82
2021/11/30 07:59:41;;;;;;;11.30;8.10;;;;;;;0.99;81.00;97648.86;2248839;78;20983;-81
2021/11/30 08:02:41;;;;;;;8.80;7.17;;;;;;;1.06;80.65;97640.52;2222965;78;21042;-81
2021/11/30 08:05:42;;;;;;;9.50;7.03;;;;;;;1.09;80.41;97636.75;2230093;78;21146;-82
2021/11/30 08:08:43;;;;;;;11.83;7.33;;;;;;;1.07;79.68;97642.25;2244792;78;20991;-81
2021/11/30 08:11:44;;;;;;;10.00;7.23;;;;;;;1.08;80.11;97637.57;2263945;78;21046;-82
2021/11/30 08:14:44;;;;;;;9.57;7.47;;;;;;;1.16;80.30;97635.23;2256532;78;21709;-81
2021/11/30 08:17:45;;;;;;;9.83;7.10;;;;;;;1.14;80.05;97638.16;2256673;78;20963;-81
2021/11/30 08:20:46;;;;;;;10.67;7.70;;;;;;;1.11;79.50;97632.52;2240943;78;20967;-82
2021/11/30 08:23:46;;;;;;;9.07;6.80;;;;;;;1.08;80.17;97618.71;2246660;78;20967;-82
2021/11/30 08:29:50;;;;;;;10.93;8.53;;;;;;;1.17;79.97;97619.84;2223983;78;20963;-83
2021/11/30 08:32:51;;;;;;;11.90;8.73;;;;;;;1.25;79.73;97614.52;2259837;78;21019;-81
2021/11/30 08:35:52;;;;;;;12.73;8.90;;;;;;;1.35;79.66;97611.78;2252949;78;21650;-82
2021/11/30 08:38:53;;;;;;;12.10;7.87;;;;;;;1.52;79.55;97610.55;2224916;78;20991;-80
2021/11/30 08:41:54;;;;;;;12.00;8.70;;;;;;;1.73;79.79;97608.97;2262179;78;20947;-80
2021/11/30 08:44:54;;;;;;;10.97;8.70;;;;;;;1.86;79.10;97602.06;2234302;78;21006;-83
2021/11/30 08:47:55;;;;;;;17.07;10.90;;;;;;;1.91;78.75;97603.05;2222792;78;20979;-81
2021/11/30 08:50:56;;;;;;;20.70;11.73;;;;;;;1.91;78.75;97591.88;2247515;78;20979;-81
2021/11/30 08:56:59;;;;;;;15.77;10.50;;;;;;;2.14;78.11;97574.44;2230178;78;21395;-80
2021/11/30 09:00:00;;;;;;;29.93;19.17;;;;;;;2.28;78.21;97560.19;2262230;78;20979;-82
2021/11/30 09:03:00;;;;;;;87.10;35.80;;;;;;;2.50;78.43;97560.27;2247192;78;20944;-82
2021/11/30 09:06:01;;;;;;;62.47;28.13;;;;;;;2.62;77.55;97551.98;2239467;78;21474;-81
2021/11/30 09:09:02;;;;;;;38.70;24.47;;;;;;;2.68;77.16;97534.08;2268828;78;20948;-81
2021/11/30 09:12:03;;;;;;;23.73;16.33;;;;;;;2.66;77.19;97534.05;2269052;78;21335;-83
2021/11/30 09:15:04;;;;;;;44.67;24.07;;;;;;;2.68;77.25;97527.22;2255343;78;21067;-81
2021/11/30 09:18:04;;;;;;;73.57;30.03;;;;;;;2.71;76.52;97514.82;2268422;78;20943;-80
2021/11/30 09:21:05;;;;;;;78.53;32.07;;;;;;;2.71;76.58;97506.67;2242807;78;20979;-81
2021/11/30 09:24:05;;;;;;;88.23;36.93;;;;;;;2.81;76.98;97503.45;2267624;78;20943;-82
2021/11/30 09:27:06;;;;;;;71.13;31.13;;;;;;;2.92;76.40;97501.09;2249017;78;21379;-82
2021/11/30 09:30:06;;;;;;;40.30;21.00;;;;;;;3.08;76.42;97501.84;2233853;78;20960;-81
2021/11/30 09:33:07;;;;;;;24.17;15.20;;;;;;;3.11;76.13;97493.30;2234483;78;21054;-82
2021/11/30 09:36:08;;;;;;;15.60;12.37;;;;;;;3.15;76.30;97492.09;2268024;78;20991;-81
2021/11/30 09:39:08;;;;;;;18.97;9.90;;;;;;;3.17;74.89;97482.69;2238352;78;21030;-81
2021/11/30 09:42:09;;;;;;;15.67;9.97;;;;;;;3.22;84.09;97467.72;2268614;78;20960;-80
2021/11/30 09:45:10;;;;;;;12.27;9.67;;;;;;;4.14;75.22;97461.98;2257122;78;20968;-83
2021/11/30 09:48:11;;;;;;;13.97;10.13;;;;;;;3.82;74.49;97461.48;2234330;78;21408;-82
2021/11/30 09:51:12;;;;;;;10.47;8.07;;;;;;;;;;2253060;78;21426;-81
2021/11/30 09:54:12;;;;;;;11.17;8.60;;;;;;;3.46;74.26;97456.13;2256733;78;20967;-80
2021/11/30 09:57:14;;;;;;;11.70;9.40;;;;;;;3.38;74.55;97442.23;2266315;78;20963;-81
2021/11/30 10:00:14;;;;;;;10.47;8.77;;;;;;;3.27;74.48;97442.46;2243592;78;21463;-81
2021/11/30 10:03:15;;;;;;;11.13;8.47;;;;;;;3.25;75.19;97427.38;2262879;78;21006;-80
2021/11/30 10:06:15;;;;;;;9.97;8.40;;;;;;;3.34;75.03;97423.67;2224507;78;21002;-79
2021/11/30 10:09:16;;;;;;;13.00;8.97;;;;;;;3.51;74.25;97414.55;2256907;78;21355;-80
2021/11/30 10:12:16;;;;;;;9.37;7.20;;;;;;;3.65;74.50;97406.16;2225310;78;20998;-82
2021/11/30 10:15:17;;;;;;;12.10;9.07;;;;;;;3.76;73.60;97401.61;2238325;78;20991;-82
2021/11/30 10:18:18;;;;;;;10.17;8.50;;;;;;;3.71;72.32;97388.19;2249602;78;21010;-82
2021/11/30 10:24:24;;;;;;;11.70;9.90;;;;;;;3.48;73.46;97372.34;2229565;78;21003;-82
2021/11/30 10:27:24;;;;;;;10.67;8.93;;;;;;;3.47;73.46;97365.03;2255676;78;20987;-83
2021/11/30 10:30:25;;;;;;;11.90;9.40;;;;;;;3.57;73.41;97358.30;2232717;78;20943;-80
2021/11/30 10:33:25;;;;;;;16.33;12.80;;;;;;;3.61;72.31;97348.48;2244344;78;21013;-82
2021/11/30 10:36:26;;;;;;;15.07;12.30;;;;;;;3.56;72.57;97346.67;2234089;78;21054;-82
2021/11/30 10:39:27;;;;;;;18.83;15.60;;;;;;;3.55;73.53;97344.93;2247694;78;20992;-83
2021/11/30 10:42:27;;;;;;;33.63;20.10;;;;;;;3.58;73.29;97339.39;2228249;78;20956;-83
2021/11/30 10:45:28;;;;;;;30.60;19.93;;;;;;;3.65;72.38;97320.58;2234867;78;20955;-83
2021/11/30 10:48:29;;;;;;;20.83;13.83;;;;;;;3.60;72.77;97317.06;2222758;78;20983;-82
2021/11/30 10:51:30;;;;;;;20.53;15.20;;;;;;;3.57;73.13;97313.15;2252352;78;21145;-84
2021/11/30 10:54:31;;;;;;;31.77;17.23;;;;;;;3.61;73.10;97302.45;2228079;78;21019;-83
2021/11/30 10:57:32;;;;;;;34.17;20.50;;;;;;;3.65;71.97;97292.20;2252326;78;21469;-83
2021/11/30 11:00:34;;;;;;;23.60;17.33;;;;;;;3.54;72.22;97274.41;2222387;78;21065;-82
2021/11/30 11:03:34;;;;;;;19.10;14.30;;;;;;;3.55;72.10;97266.25;2252365;78;21018;-83
2021/11/30 11:09:37;;;;;;;20.97;13.60;;;;;;;3.59;72.18;97240.51;2219235;78;21042;-82
2021/11/30 11:12:38;;;;;;;17.30;13.07;;;;;;;3.60;72.35;97229.34;2269342;78;20979;-81
2021/11/30 11:15:38;;;;;;;19.53;14.60;;;;;;;3.53;72.20;97226.23;2271253;78;20999;-83
2021/11/30 11:18:41;;;;;;;21.20;14.77;;;;;;;3.45;71.92;97210.63;2244441;78;21337;-80
2021/11/30 11:21:41;;;;;;;25.53;15.80;;;;;;;3.40;72.73;97194.22;2238589;78;20948;-81
2021/11/30 11:24:42;;;;;;;23.73;15.90;;;;;;;3.41;72.09;97196.37;2225253;78;21836;-81
2021/11/30 11:27:42;;;;;;;24.33;17.07;;;;;;;3.34;72.18;97181.66;2263251;78;21031;-83
2021/11/30 11:30:43;;;;;;;25.90;16.53;;;;;;;3.37;73.24;97176.13;2256375;78;21018;-82
2021/11/30 11:33:43;;;;;;;26.00;17.40;;;;;;;3.40;72.27;97173.58;2250497;78;20979;-80
2021/11/30 11:36:44;;;;;;;23.83;17.17;;;;;;;3.35;72.16;97162.34;2252591;78;21026;-81
2021/11/30 11:39:45;;;;;;;28.17;18.03;;;;;;;3.34;72.18;97155.88;2261101;78;21089;-81
2021/11/30 11:42:45;;;;;;;24.27;16.07;;;;;;;3.37;72.81;97147.75;2249351;78;21402;-83
2021/11/30 11:45:46;;;;;;;26.20;16.73;;;;;;;3.39;72.64;97136.16;2241304;78;21058;-81
2021/11/30 11:48:49;;;;;;;24.73;16.63;;;;;;;3.39;71.99;97115.53;2242009;78;21027;-82
2021/11/30 11:51:49;;;;;;;28.20;18.17;;;;;;;3.32;70.86;97104.27;2223525;78;20987;-81
2021/11/30 11:54:50;;;;;;;27.70;18.40;;;;;;;3.32;72.41;97112.44;2269255;78;20947;-82
2021/11/30 11:57:50;;;;;;;22.60;15.10;;;;;;;3.35;72.16;97104.73;2270235;78;21039;-82
2021/11/30 12:00:55;;;;;;;22.07;14.37;;;;;;;3.30;71.44;97086.62;2255926;78;20991;-80
2021/11/30 12:03:53;;;;;;;23.10;15.43;;;;;;;3.34;71.57;97074.63;2256672;78;21130;-80
2021/11/30 12:06:58;;;;;;;19.47;14.07;;;;;;;3.39;72.14;97076.84;2223496;78;21402;-83
2021/11/30 12:09:56;;;;;;;26.10;13.83;;;;;;;3.37;70.33;97053.61;2240612;78;21031;-82
2021/11/30 12:12:57;;;;;;;20.97;13.40;;;;;;;3.33;70.84;97054.85;2254589;78;20975;-82
2021/11/30 12:15:57;;;;;;;20.93;13.63;;;;;;;3.34;69.95;97042.40;2258715;78;21350;-81
2021/11/30 12:18:58;;;;;;;22.40;14.23;;;;;;;3.36;70.74;97045.86;2229288;78;20991;-80
2021/11/30 12:21:58;;;;;;;19.83;12.80;;;;;;;3.36;70.68;97036.83;2253438;78;21040;-81
2021/11/30 12:24:59;;;;;;;20.47;13.00;;;;;;;3.33;70.69;97018.75;2242274;78;20986;-82
2021/11/30 12:28:01;;;;;;;15.20;11.73;;;;;;;3.24;70.51;97022.09;2258105;78;21023;-83
2021/11/30 12:31:02;;;;;;;16.93;12.47;;;;;;;3.12;70.75;97018.08;2236314;78;21014;-82
2021/11/30 12:34:02;;;;;;;15.40;12.17;;;;;;;2.99;70.82;97017.49;2269708;78;21074;-82
2021/11/30 12:37:03;;;;;;;16.80;11.83;;;;;;;2.89;71.20;97015.23;2269758;78;21788;-81
2021/11/30 12:40:10;;;;;;;17.10;11.37;;;;;;;2.76;71.63;96995.30;2224267;78;20935;-83
2021/11/30 12:43:10;;;;;;;17.70;12.50;;;;;;;2.71;71.84;96998.25;2248280;78;21067;-83
2021/11/30 12:46:12;;;;;;;17.50;11.97;;;;;;;2.65;72.28;96987.44;2240847;78;21033;-80
2021/11/30 12:49:13;;;;;;;17.60;13.33;;;;;;;2.60;71.92;96983.04;2263352;78;21051;-80
2021/11/30 12:52:14;;;;;;;17.40;11.60;;;;;;;2.52;72.41;96974.79;2262602;78;20978;-81
2021/11/30 12:55:14;;;;;;;19.23;13.47;;;;;;;2.43;73.18;96959.22;2255606;78;21002;-80
2021/11/30 12:58:15;;;;;;;18.57;12.60;;;;;;;2.41;73.11;96958.75;2248053;78;20971;-80
2021/11/30 13:01:15;;;;;;;17.10;12.53;;;;;;;2.41;73.01;96957.47;2243418;78;21347;-80
2021/11/30 13:04:16;;;;;;;15.77;10.73;;;;;;;2.34;73.33;96945.35;2231699;78;21386;-82
2021/11/30 13:07:17;;;;;;;16.10;10.77;;;;;;;2.30;73.72;96941.88;2269957;78;21062;-80
2021/11/30 13:10:17;;;;;;;14.67;11.13;;;;;;;2.27;73.61;96934.53;2256553;78;21390;-81
2021/11/30 13:13:18;;;;;;;13.53;10.20;;;;;;;2.24;74.18;96926.34;2249129;78;20970;-81
2021/11/30 13:16:19;;;;;;;14.87;10.80;;;;;;;2.22;74.18;96926.32;2248364;78;20983;-80
2021/11/30 13:19:19;;;;;;;14.73;10.17;;;;;;;2.16;73.68;96913.37;2267630;78;20948;-81
2021/11/30 13:22:20;;;;;;;14.77;10.63;;;;;;;2.13;73.79;96904.73;2260736;78;21069;-81
2021/11/30 13:25:21;;;;;;;19.13;11.57;;;;;;;2.12;74.39;96882.42;2243517;78;21070;-80
2021/11/30 13:28:22;;;;;;;18.70;11.20;;;;;;;2.14;74.82;96875.16;2257773;78;21430;-80
2021/11/30 13:31:22;;;;;;;15.83;11.47;;;;;;;2.14;74.58;96872.59;2229527;78;20955;-81
2021/11/30 13:34:23;;;;;;;15.73;11.90;;;;;;;2.08;75.08;96865.20;2269040;78;21006;-82
2021/11/30 13:37:23;;;;;;;17.27;11.17;;;;;;;2.01;76.09;96865.97;2269495;78;21026;-81
2021/11/30 13:40:23;;;;;;;19.87;12.83;;;;;;;1.90;77.39;96868.39;2264049;78;21031;-81
2021/11/30 13:43:26;;;;;;;16.10;13.07;;;;;;;1.75;78.50;96860.04;2249869;78;20995;-80
2021/11/30 13:46:27;;;;;;;20.50;14.30;;;;;;;1.71;78.40;96847.94;2239033;78;21114;-79
2021/11/30 13:49:28;;;;;;;13.70;10.73;;;;;;;1.60;80.60;96837.92;2250047;78;21070;-80
2021/11/30 13:52:28;;;;;;;19.17;12.93;;;;;;;1.52;80.21;96824.95;2246802;78;21022;-78
2021/11/30 13:55:29;;;;;;;19.27;11.60;;;;;;;1.48;79.97;96824.89;2230566;78;21422;-79
2021/11/30 13:58:32;;;;;;;18.43;11.67;;;;;;;1.47;79.91;96815.02;2229228;78;20992;-79
2021/11/30 14:01:46;;;;;;;15.70;11.50;;;;;;;1.46;79.84;96803.01;2247953;78;21043;-80
2021/11/30 14:04:40;;;;;;;17.50;11.90;;;;;;;1.46;79.89;96788.00;2240811;78;21011;-82
2021/11/30 14:10:43;;;;;;;15.47;11.30;;;;;;;1.42;79.83;96784.52;2233996;78;21366;-84
2021/11/30 14:13:44;;;;;;;16.73;11.57;;;;;;;1.40;79.98;96763.50;2256915;78;20995;-83
2021/11/30 14:16:44;;;;;;;17.00;11.43;;;;;;;1.36;80.14;96757.45;2237719;78;20975;-82
2021/11/30 14:19:45;;;;;;;14.93;11.43;;;;;;;1.33;80.33;96756.53;2269493;78;20951;-84
2021/11/30 14:22:46;;;;;;;15.20;10.70;;;;;;;1.34;80.49;96745.41;2253000;78;21030;-82
2021/11/30 14:25:46;;;;;;;16.93;12.13;;;;;;;1.33;80.67;96739.41;2250760;78;21042;-79
2021/11/30 14:28:47;;;;;;;16.07;11.30;;;;;;;1.35;80.95;96729.15;2258093;78;21001;-80
2021/11/30 14:31:47;;;;;;;15.93;11.53;;;;;;;1.35;94.47;96713.73;2256690;78;21358;-83
2021/11/30 14:34:49;;;;;;;16.23;11.63;;;;;;;1.33;97.38;96716.28;2252428;78;20983;-82
2021/11/30 14:37:50;;;;;;;13.90;10.53;;;;;;;1.28;83.84;96707.22;2256574;78;21063;-83
2021/11/30 14:40:50;;;;;;;15.50;10.63;;;;;;;1.21;83.29;96691.69;2257563;78;20967;-84
2021/11/30 14:43:51;;;;;;;16.40;10.83;;;;;;;1.15;83.33;96685.19;2269847;78;21303;-82
2021/11/30 14:46:51;;;;;;;17.30;10.00;;;;;;;1.10;84.09;96677.41;2265221;78;21011;-83
2021/11/30 14:49:52;;;;;;;15.00;10.53;;;;;;;1.04;85.10;96687.60;2262411;78;20991;-83
2021/11/30 14:52:54;;;;;;;13.73;9.40;;;;;;;0.98;85.19;96675.95;2259870;78;21046;-82
2021/11/30 14:55:55;;;;;;;14.43;10.63;;;;;;;0.97;84.98;96663.09;2248213;78;21636;-83
2021/11/30 14:58:56;;;;;;;16.23;10.27;;;;;;;1.00;84.84;96651.15;2260209;78;21387;-84
2021/11/30 15:02:08;;;;;;;16.10;10.37;;;;;;;1.03;84.89;96649.05;2249037;78;21034;-83
2021/11/30 15:05:02;;;;;;;13.53;9.80;;;;;;;1.05;84.71;96640.52;2246730;78;20964;-83
2021/11/30 15:08:02;;;;;;;14.90;9.97;;;;;;;1.21;84.69;96655.30;2245795;78;21038;-82
2021/11/30 15:11:04;;;;;;;15.40;9.20;;;;;;;1.18;84.05;96652.68;2232581;78;20984;-82
2021/11/30 15:14:07;;;;;;;16.43;9.27;;;;;;;1.14;84.38;96639.35;2244854;78;21055;-82
2021/11/30 15:17:07;;;;;;;12.77;9.00;;;;;;;1.12;84.94;96638.89;2245556;78;20991;-83
2021/11/30 15:20:08;;;;;;;14.07;8.83;;;;;;;1.12;84.81;96641.46;2228555;78;20959;-82
2021/11/30 15:23:09;;;;;;;13.93;9.30;;;;;;;1.12;84.90;96649.17;2253751;78;21097;-82
2021/11/30 15:26:09;;;;;;;13.83;8.53;;;;;;;1.10;84.68;96644.43;2263904;78;20947;-82
2021/11/30 15:29:10;;;;;;;11.13;8.13;;;;;;;1.09;85.01;96638.43;2250330;78;20975;-85
2021/11/30 15:32:10;;;;;;;11.70;7.17;;;;;;;1.11;84.69;96626.89;2223313;78;20959;-82
2021/11/30 15:35:12;;;;;;;10.70;6.87;;;;;;;1.13;84.62;96640.62;2253748;78;21022;-82
2021/11/30 15:38:13;;;;;;;8.90;6.83;;;;;;;1.32;84.40;96622.44;2272064;78;21409;-85
2021/11/30 15:41:13;;;;;;;12.17;7.07;;;;;;;1.27;84.18;96634.81;2271024;78;20998;-81
2021/11/30 15:44:17;;;;;;;10.33;6.27;;;;;;;1.26;86.22;96621.94;2264501;78;21034;-82
2021/11/30 15:47:18;;;;;;;9.23;6.20;;;;;;;1.41;84.29;96625.13;2269792;78;21406;-82
2021/11/30 15:50:18;;;;;;;9.33;5.97;;;;;;;1.34;84.32;96626.75;2239921;78;21018;-83
2021/11/30 15:53:19;;;;;;;10.50;6.80;;;;;;;1.28;84.29;96633.97;2257763;78;21034;-83
2021/11/30 15:59:38;;;;;;;12.43;7.50;;;;;;;1.20;85.01;96626.58;2253262;78;21035;-83
2021/11/30 16:02:39;;;;;;;10.80;6.57;;;;;;;1.18;85.33;96597.86;2243153;78;21401;-82
2021/11/30 16:05:39;;;;;;;12.33;7.00;;;;;;;1.11;85.34;96619.18;2224754;78;21011;-82
2021/11/30 16:08:40;;;;;;;10.13;7.17;;;;;;;1.07;85.83;96614.42;2250272;78;21018;-82
2021/11/30 16:11:41;;;;;;;9.23;6.53;;;;;;;1.06;86.39;96602.42;2254043;78;20999;-81
2021/11/30 16:14:42;;;;;;;8.57;6.30;;;;;;;1.05;86.58;96596.84;2224752;78;21385;-81
2021/11/30 16:17:42;;;;;;;11.30;6.93;;;;;;;1.03;87.01;96588.25;2253245;78;21003;-82
2021/11/30 16:20:43;;;;;;;11.27;6.83;;;;;;;1.22;86.83;96600.48;2238563;78;20997;-82
2021/11/30 16:23:43;;;;;;;9.77;5.73;;;;;;;1.18;86.65;96592.30;2266190;78;20987;-83
2021/11/30 16:26:44;;;;;;;8.23;5.90;;;;;;;1.19;86.61;96586.73;2239576;78;21039;-83
2021/11/30 16:29:44;;;;;;;9.13;5.47;;;;;;;1.20;86.47;96590.61;2266431;78;20999;-82
2021/11/30 16:32:45;;;;;;;9.40;6.50;;;;;;;1.20;86.63;96591.03;2253461;78;20960;-80
2021/11/30 16:35:46;;;;;;;8.53;6.07;;;;;;;1.19;86.61;96590.16;2248803;78;21412;-80
2021/11/30 16:38:46;;;;;;;10.17;6.27;;;;;;;1.18;87.04;96579.87;2230257;78;21018;-81
2021/11/30 16:41:47;;;;;;;12.90;7.90;;;;;;;1.17;86.93;96575.15;2269373;78;20947;-83
2021/11/30 16:47:51;;;;;;;14.20;7.37;;;;;;;1.19;87.18;96568.33;2198222;78;20987;-81
2021/11/30 16:50:52;;;;;;;10.77;7.17;;;;;;;1.20;87.56;96570.47;2258781;78;21010;-82
2021/11/30 16:53:53;;;;;;;8.97;6.27;;;;;;;1.20;87.69;96573.91;2247410;78;20987;-82
2021/11/30 16:56:53;;;;;;;17.30;8.83;;;;;;;1.22;87.29;96572.64;2265918;78;21022;-83
2021/11/30 16:59:54;;;;;;;10.77;6.57;;;;;;;1.25;87.61;96582.95;2230655;78;21379;-81
2021/11/30 17:02:54;;;;;;;10.03;5.77;;;;;;;1.22;87.65;96567.08;2261268;78;21024;-83
2021/11/30 17:08:57;;;;;;;8.67;5.50;;;;;;;1.16;87.89;96582.42;2224594;78;21046;-82
2021/11/30 17:11:58;;;;;;;7.17;5.00;;;;;;;1.15;88.34;96589.69;2272826;78;21006;-82
2021/11/30 17:14:58;;;;;;;12.13;6.87;;;;;;;1.16;88.22;96591.84;2258623;78;20968;-83
2021/11/30 17:17:59;;;;;;;15.67;7.30;;;;;;;1.16;88.38;96569.99;2246020;78;21002;-84
2021/11/30 17:21:01;;;;;;;15.50;9.47;;;;;;;1.13;88.36;96583.67;2246767;78;20963;-83
2021/11/30 17:24:02;;;;;;;11.87;6.90;;;;;;;1.15;88.49;96578.13;2261136;78;21395;-83
2021/11/30 17:27:03;;;;;;;11.30;6.30;;;;;;;1.13;88.47;96597.80;2237054;78;21022;-82
2021/11/30 17:30:03;;;;;;;10.37;6.27;;;;;;;1.12;88.30;96585.80;2249159;78;21062;-82
2021/11/30 17:33:05;;;;;;;9.10;5.77;;;;;;;1.10;88.48;96582.77;2236511;78;21363;-83
2021/11/30 17:39:09;;;;;;;9.80;5.97;;;;;;;1.06;88.50;96575.86;2222789;78;21059;-82
2021/11/30 17:42:10;;;;;;;9.83;6.07;;;;;;;1.06;88.88;96583.57;2271452;78;20979;-83
2021/11/30 17:45:10;;;;;;;10.33;5.60;;;;;;;1.08;88.78;96592.16;2256221;78;21034;-82
2021/11/30 17:48:11;;;;;;;8.77;5.63;;;;;;;1.10;89.17;96591.76;2242033;78;21027;-83
2021/11/30 17:51:11;;;;;;;6.80;5.30;;;;;;;1.13;88.97;96599.50;2255985;78;20980;-81